createdAt,value
2017-10-10T00:00:56.752Z,40.92
2017-10-10T00:02:08.674Z,41.02
2017-10-10T00:03:21.244Z,40.73
2017-10-10T00:04:32.865Z,41.02
2017-10-10T00:05:45.435Z,40.92
2017-10-10T00:06:58.306Z,41.02
2017-10-10T00:08:10.877Z,41.02
2017-10-10T00:09:23.121Z,41.02
2017-10-10T00:10:35.686Z,40.83
2017-10-10T00:11:47.938Z,40.92
2017-10-10T00:13:00.176Z,41.11
2017-10-10T00:14:12.731Z,40.73
2017-10-10T00:15:24.976Z,41.02
2017-10-10T00:16:37.223Z,40.92
2017-10-10T00:17:49.791Z,40.73
2017-10-10T00:19:01.067Z,40.64
2017-10-10T00:20:12.684Z,40.73
2017-10-10T00:21:24.610Z,40.73
2017-10-10T00:22:37.177Z,40.45
2017-10-10T00:23:49.418Z,40.73
2017-10-10T00:25:01.669Z,40.83
2017-10-10T00:26:13.592Z,40.73
2017-10-10T00:27:26.157Z,40.64
2017-10-10T00:28:38.731Z,40.73
2017-10-10T00:29:51.297Z,40.64
2017-10-10T00:31:03.862Z,40.64
2017-10-10T00:32:15.782Z,40.73
2017-10-10T00:33:28.011Z,40.73
2017-10-10T00:34:40.256Z,40.73
2017-10-10T00:35:52.502Z,40.73
2017-10-10T00:37:04.747Z,40.73
2017-10-10T00:38:16.693Z,40.54
2017-10-10T00:39:29.514Z,40.83
2017-10-10T00:40:42.084Z,40.83
2017-10-10T00:41:54.654Z,40.35
2017-10-10T00:43:06.901Z,40.35
2017-10-10T00:44:19.150Z,40.45
2017-10-10T00:45:31.717Z,40.73
2017-10-10T00:46:44.287Z,40.83
2017-10-10T00:47:56.863Z,40.73
2017-10-10T00:49:09.096Z,40.73
2017-10-10T00:50:21.024Z,40.45
2017-10-10T00:51:32.945Z,40.45
2017-10-10T00:52:45.515Z,40.45
2017-10-10T00:53:58.060Z,40.54
2017-10-10T00:55:10.631Z,40.83
2017-10-10T00:56:22.919Z,40.56
2017-10-10T00:57:35.174Z,40.45
2017-10-10T00:58:47.419Z,40.64
2017-10-10T00:59:59.667Z,40.35
2017-10-10T01:01:11.609Z,40.64
2017-10-10T01:02:23.231Z,40.35
2017-10-10T01:03:35.802Z,40.26
2017-10-10T01:04:48.051Z,40.35
2017-10-10T01:06:00.293Z,40.35
2017-10-10T01:07:12.214Z,40.26
2017-10-10T01:08:24.784Z,40.35
2017-10-10T01:09:36.397Z,40.73
2017-10-10T01:10:48.978Z,40.54
2017-10-10T01:12:01.221Z,40.35
2017-10-10T01:13:13.475Z,40.09
2017-10-10T01:14:26.037Z,40.16
2017-10-10T01:15:37.983Z,39.87
2017-10-10T01:16:49.932Z,40.06
2017-10-10T01:18:01.850Z,39.97
2017-10-10T01:19:14.420Z,39.99
2017-10-10T01:20:26.340Z,39.9
2017-10-10T01:21:38.612Z,40.18
2017-10-10T01:22:51.206Z,40.16
2017-10-10T01:24:03.458Z,39.97
2017-10-10T01:25:16.024Z,40.06
2017-10-10T01:26:28.270Z,39.87
2017-10-10T01:27:40.839Z,39.9
2017-10-10T01:28:52.785Z,40.09
2017-10-10T01:30:05.031Z,39.87
2017-10-10T01:31:17.602Z,39.97
2017-10-10T01:32:30.172Z,40.16
2017-10-10T01:33:42.747Z,40.26
2017-10-10T01:34:55.318Z,40.16
2017-10-10T01:36:07.561Z,39.8
2017-10-10T01:37:20.130Z,40.09
2017-10-10T01:38:32.068Z,39.99
2017-10-10T01:39:44.298Z,39.9
2017-10-10T01:40:56.542Z,40.18
2017-10-10T01:42:09.112Z,40.16
2017-10-10T01:43:21.380Z,40.06
2017-10-10T01:44:34.205Z,39.97
2017-10-10T01:45:46.774Z,39.99
2017-10-10T01:46:59.347Z,39.99
2017-10-10T01:48:11.915Z,39.9
2017-10-10T01:49:24.486Z,39.97
2017-10-10T01:50:36.748Z,39.87
2017-10-10T01:51:49.308Z,39.99
2017-10-10T01:53:01.873Z,39.9
2017-10-10T01:54:14.111Z,39.9
2017-10-10T01:55:26.357Z,39.99
2017-10-10T01:56:38.938Z,40.18
2017-10-10T01:57:51.519Z,40.18
2017-10-10T01:59:04.080Z,40.09
2017-10-10T02:00:16.647Z,40.37
2017-10-10T02:01:28.918Z,40.28
2017-10-10T02:02:41.537Z,40.18
2017-10-10T02:03:54.134Z,40.09
2017-10-10T02:05:06.063Z,40.09
2017-10-10T02:06:18.301Z,40.37
2017-10-10T02:07:30.896Z,40.37
2017-10-10T02:08:43.466Z,40.28
2017-10-10T02:09:55.736Z,40.26
2017-10-10T02:11:07.984Z,40.37
2017-10-10T02:12:20.228Z,40.37
2017-10-10T02:13:32.174Z,40.37
2017-10-10T02:14:44.111Z,40.26
2017-10-10T02:15:56.665Z,40.26
2017-10-10T02:17:08.928Z,40.75
2017-10-10T02:18:21.482Z,40.75
2017-10-10T02:19:33.728Z,40.66
2017-10-10T02:20:45.976Z,40.35
2017-10-10T02:21:58.219Z,40.35
2017-10-10T02:23:10.489Z,40.26
2017-10-10T02:24:22.752Z,40.66
2017-10-10T02:25:35.023Z,40.35
2017-10-10T02:26:47.601Z,40.47
2017-10-10T02:27:59.848Z,40.37
2017-10-10T02:29:12.093Z,40.35
2017-10-10T02:30:24.663Z,40.37
2017-10-10T02:31:36.916Z,40.35
2017-10-10T02:32:49.154Z,40.35
2017-10-10T02:34:00.777Z,40.66
2017-10-10T02:35:13.379Z,40.35
2017-10-10T02:36:25.616Z,40.64
2017-10-10T02:37:37.537Z,40.64
2017-10-10T02:38:50.108Z,40.56
2017-10-10T02:40:02.678Z,40.54
2017-10-10T02:41:15.253Z,40.73
2017-10-10T02:42:27.514Z,40.54
2017-10-10T02:43:39.765Z,40.45
2017-10-10T02:44:52.314Z,40.54
2017-10-10T02:46:04.882Z,40.45
2017-10-10T02:47:17.127Z,40.64
2017-10-10T02:48:29.377Z,40.64
2017-10-10T02:49:40.994Z,40.56
2017-10-10T02:50:53.239Z,40.73
2017-10-10T02:52:05.812Z,40.45
2017-10-10T02:53:17.773Z,40.73
2017-10-10T02:54:30.352Z,40.56
2017-10-10T02:55:42.922Z,40.83
2017-10-10T02:56:54.870Z,40.64
2017-10-10T02:58:07.455Z,40.64
2017-10-10T02:59:19.388Z,40.64
2017-10-10T03:00:31.630Z,40.54
2017-10-10T03:01:43.875Z,40.73
2017-10-10T03:02:56.446Z,40.85
2017-10-10T03:04:09.015Z,40.92
2017-10-10T03:05:20.982Z,40.73
2017-10-10T03:06:33.558Z,40.83
2017-10-10T03:07:46.128Z,40.83
2017-10-10T03:08:58.379Z,40.75
2017-10-10T03:10:10.618Z,40.73
2017-10-10T03:11:22.864Z,40.73
2017-10-10T03:12:34.478Z,40.83
2017-10-10T03:13:46.731Z,40.73
2017-10-10T03:14:59.301Z,40.64
2017-10-10T03:16:11.874Z,40.73
2017-10-10T03:17:24.418Z,40.54
2017-10-10T03:18:36.989Z,40.56
2017-10-10T03:19:49.561Z,40.54
2017-10-10T03:21:02.131Z,40.45
2017-10-10T03:22:14.717Z,40.83
2017-10-10T03:23:26.966Z,40.73
2017-10-10T03:24:39.243Z,40.35
2017-10-10T03:25:51.790Z,40.54
2017-10-10T03:27:03.734Z,40.35
2017-10-10T03:28:15.979Z,40.26
2017-10-10T03:29:28.224Z,40.64
2017-10-10T03:30:40.497Z,40.45
2017-10-10T03:31:52.766Z,40.35
2017-10-10T03:33:05.014Z,40.64
2017-10-10T03:34:17.257Z,40.66
2017-10-10T03:35:29.506Z,40.73
2017-10-10T03:36:41.147Z,40.26
2017-10-10T03:37:53.393Z,40.35
2017-10-10T03:39:06.016Z,40.06
2017-10-10T03:40:18.285Z,40.37
2017-10-10T03:41:30.214Z,40.64
2017-10-10T03:42:42.795Z,40.35
2017-10-10T03:43:54.714Z,40.45
2017-10-10T03:45:07.293Z,40.26
2017-10-10T03:46:19.869Z,40.45
2017-10-10T03:47:32.110Z,40.26
2017-10-10T03:48:44.679Z,40.35
2017-10-10T03:49:56.929Z,40.28
2017-10-10T03:51:09.499Z,40.26
2017-10-10T03:52:21.742Z,40.54
2017-10-10T03:53:33.663Z,40.73
2017-10-10T03:54:46.232Z,40.64
2017-10-10T03:55:58.779Z,40.92
2017-10-10T03:57:11.026Z,40.83
2017-10-10T03:58:23.270Z,40.45
2017-10-10T03:59:34.868Z,40.54
2017-10-10T04:00:47.113Z,40.37
2017-10-10T04:01:59.681Z,40.26
2017-10-10T04:03:11.945Z,40.26
2017-10-10T04:04:24.199Z,40.35
2017-10-10T04:05:36.769Z,40.06
2017-10-10T04:06:49.340Z,40.18
2017-10-10T04:08:01.929Z,39.87
2017-10-10T04:09:14.505Z,39.97
2017-10-10T04:10:27.078Z,39.87
2017-10-10T04:11:39.947Z,40.16
2017-10-10T04:12:52.518Z,39.97
2017-10-10T04:14:04.764Z,39.87
2017-10-10T04:15:17.033Z,39.97
2017-10-10T04:16:28.953Z,40.16
2017-10-10T04:17:40.920Z,40.06
2017-10-10T04:18:52.847Z,39.99
2017-10-10T04:20:05.120Z,40.16
2017-10-10T04:21:17.388Z,39.97
2017-10-10T04:22:29.985Z,40.28
2017-10-10T04:23:42.228Z,40.26
2017-10-10T04:24:54.475Z,40.26
2017-10-10T04:26:07.045Z,39.87
2017-10-10T04:27:19.295Z,40.09
2017-10-10T04:28:31.229Z,39.78
2017-10-10T04:29:43.484Z,40.09
2017-10-10T04:30:56.078Z,40.06
2017-10-10T04:32:08.324Z,39.9
2017-10-10T04:33:20.569Z,39.87
2017-10-10T04:34:32.814Z,39.87
2017-10-10T04:35:45.062Z,39.87
2017-10-10T04:36:57.008Z,39.8
2017-10-10T04:38:09.577Z,39.78
2017-10-10T04:39:22.148Z,39.61
2017-10-10T04:40:34.719Z,39.61
2017-10-10T04:41:46.640Z,39.69
2017-10-10T04:42:58.902Z,39.8
2017-10-10T04:44:11.480Z,39.5
2017-10-10T04:45:24.053Z,39.51
2017-10-10T04:46:36.622Z,39.5
2017-10-10T04:47:49.194Z,39.9
2017-10-10T04:49:01.438Z,39.7
2017-10-10T04:50:13.709Z,39.78
2017-10-10T04:51:25.651Z,39.8
2017-10-10T04:52:37.900Z,39.69
2017-10-10T04:53:50.149Z,39.69
2017-10-10T04:55:02.066Z,39.7
2017-10-10T04:56:14.312Z,39.69
2017-10-10T04:57:26.549Z,39.69
2017-10-10T04:58:38.803Z,39.69
2017-10-10T04:59:51.674Z,39.78
2017-10-10T05:01:03.927Z,39.42
2017-10-10T05:02:16.516Z,39.21
2017-10-10T05:03:28.459Z,39.12
2017-10-10T05:04:41.060Z,38.66
2017-10-10T05:05:53.627Z,38.64
2017-10-10T05:07:05.890Z,39.02
2017-10-10T05:08:17.818Z,38.83
2017-10-10T05:09:29.739Z,38.83
2017-10-10T05:10:42.311Z,38.92
2017-10-10T05:11:54.554Z,38.83
2017-10-10T05:13:07.131Z,38.83
2017-10-10T05:14:19.052Z,38.92
2017-10-10T05:15:30.984Z,38.92
2017-10-10T05:16:43.562Z,38.64
2017-10-10T05:17:56.158Z,38.54
2017-10-10T05:19:08.404Z,39.02
2017-10-10T05:20:20.351Z,39.02
2017-10-10T05:21:32.898Z,38.92
2017-10-10T05:22:45.467Z,39.02
2017-10-10T05:23:58.037Z,39.02
2017-10-10T05:25:09.964Z,38.92
2017-10-10T05:26:22.528Z,38.54
2017-10-10T05:27:34.448Z,38.73
2017-10-10T05:28:46.698Z,38.54
2017-10-10T05:29:58.939Z,38.85
2017-10-10T05:31:11.515Z,38.64
2017-10-10T05:32:23.774Z,38.73
2017-10-10T05:33:36.028Z,38.73
2017-10-10T05:34:48.598Z,38.64
2017-10-10T05:36:01.171Z,38.73
2017-10-10T05:37:13.743Z,38.73
2017-10-10T05:38:25.984Z,38.83
2017-10-10T05:39:38.573Z,38.64
2017-10-10T05:40:51.126Z,38.54
2017-10-10T05:42:03.372Z,38.45
2017-10-10T05:43:15.616Z,38.26
2017-10-10T05:44:27.886Z,38.26
2017-10-10T05:45:39.811Z,38.07
2017-10-10T05:46:52.068Z,38.28
2017-10-10T05:48:03.992Z,37.9
2017-10-10T05:49:16.572Z,37.9
2017-10-10T05:50:28.490Z,37.97
2017-10-10T05:51:41.060Z,37.97
2017-10-10T05:52:53.631Z,38.07
2017-10-10T05:54:05.878Z,37.97
2017-10-10T05:55:17.496Z,37.99
2017-10-10T05:56:29.743Z,38.28
2017-10-10T05:57:41.992Z,37.9
2017-10-10T05:58:54.578Z,37.99
2017-10-10T06:00:06.524Z,37.9
2017-10-10T06:01:18.783Z,37.99
2017-10-10T06:02:31.047Z,38.09
2017-10-10T06:03:43.318Z,38.09
2017-10-10T06:04:55.889Z,37.8
2017-10-10T06:06:07.813Z,37.9
2017-10-10T06:07:20.072Z,37.9
2017-10-10T06:08:32.000Z,37.8
2017-10-10T06:09:44.251Z,37.52
2017-10-10T06:10:56.817Z,37.71
2017-10-10T06:12:08.758Z,37.61
2017-10-10T06:13:21.334Z,37.52
2017-10-10T06:14:33.597Z,37.23
2017-10-10T06:15:46.179Z,37.42
2017-10-10T06:16:58.430Z,37.52
2017-10-10T06:18:10.991Z,37.42
2017-10-10T06:19:23.261Z,37.52
2017-10-10T06:20:35.831Z,37.04
2017-10-10T06:21:48.327Z,37.04
2017-10-10T06:23:00.898Z,37.04
2017-10-10T06:24:13.145Z,37.42
2017-10-10T06:25:25.390Z,37.32
2017-10-10T06:26:37.638Z,37.61
2017-10-10T06:27:49.881Z,37.52
2017-10-10T06:29:02.502Z,37.42
2017-10-10T06:30:14.773Z,37.23
2017-10-10T06:31:26.696Z,37.42
2017-10-10T06:32:39.265Z,37.32
2017-10-10T06:33:50.865Z,37.42
2017-10-10T06:35:03.105Z,37.23
2017-10-10T06:36:15.025Z,37.32
2017-10-10T06:37:27.538Z,37.9
2017-10-10T06:38:40.109Z,37.8
2017-10-10T06:39:52.688Z,37.71
2017-10-10T06:41:04.937Z,37.9
2017-10-10T06:42:17.204Z,37.9
2017-10-10T06:43:28.825Z,37.9
2017-10-10T06:44:40.748Z,37.9
2017-10-10T06:45:53.315Z,37.52
2017-10-10T06:47:05.928Z,37.71
2017-10-10T06:48:17.882Z,37.42
2017-10-10T06:49:30.128Z,37.04
2017-10-10T06:50:42.374Z,37.23
2017-10-10T06:51:54.646Z,37.42
2017-10-10T06:53:07.215Z,36.94
2017-10-10T06:54:19.785Z,37.04
2017-10-10T06:55:32.032Z,37.04
2017-10-10T06:56:43.976Z,37.04
2017-10-10T06:57:56.547Z,36.94
2017-10-10T06:59:08.493Z,36.94
2017-10-10T07:00:20.808Z,37.04
2017-10-10T07:01:33.060Z,36.94
2017-10-10T07:02:45.630Z,36.94
2017-10-10T07:03:57.581Z,36.94
2017-10-10T07:05:09.521Z,37.42
2017-10-10T07:06:21.466Z,37.32
2017-10-10T07:07:33.412Z,37.52
2017-10-10T07:08:45.334Z,37.13
2017-10-10T07:09:57.579Z,37.13
2017-10-10T07:11:09.531Z,37.32
2017-10-10T07:12:21.771Z,37.61
2017-10-10T07:13:34.340Z,37.71
2017-10-10T07:14:46.611Z,37.32
2017-10-10T07:15:59.181Z,37.13
2017-10-10T07:17:11.752Z,37.13
2017-10-10T07:18:24.324Z,37.42
2017-10-10T07:19:36.894Z,37.32
2017-10-10T07:20:49.514Z,37.44
2017-10-10T07:22:01.436Z,37.54
2017-10-10T07:23:13.708Z,36.94
2017-10-10T07:24:25.625Z,36.94
2017-10-10T07:25:37.875Z,36.94
2017-10-10T07:26:49.817Z,36.94
2017-10-10T07:28:01.415Z,37.04
2017-10-10T07:29:14.027Z,36.94
2017-10-10T07:30:25.959Z,36.96
2017-10-10T07:31:38.527Z,37.42
2017-10-10T07:32:50.472Z,36.96
2017-10-10T07:34:03.045Z,37.04
2017-10-10T07:35:14.988Z,36.94
2017-10-10T07:36:27.558Z,37.44
2017-10-10T07:37:39.507Z,37.44
2017-10-10T07:38:51.449Z,37.06
2017-10-10T07:40:03.695Z,37.73
2017-10-10T07:41:16.266Z,38.1
2017-10-10T07:42:28.528Z,37.92
2017-10-10T07:43:40.785Z,38.37
2017-10-10T07:44:53.052Z,38.01
2017-10-10T07:46:04.972Z,38.01
2017-10-10T07:47:17.245Z,37.92
2017-10-10T07:48:29.515Z,38.49
2017-10-10T07:49:42.088Z,38.66
2017-10-10T07:50:54.673Z,38.68
2017-10-10T07:52:06.927Z,38.87
2017-10-10T07:53:19.472Z,38.87
2017-10-10T07:54:32.068Z,38.66
2017-10-10T07:55:44.314Z,38.78
2017-10-10T07:56:56.564Z,38.39
2017-10-10T07:58:09.156Z,38.09
2017-10-10T07:59:21.401Z,37.99
2017-10-10T08:00:33.647Z,38.01
2017-10-10T08:01:46.216Z,38.2
2017-10-10T08:02:58.463Z,37.82
2017-10-10T08:04:10.733Z,38.01
2017-10-10T08:05:22.680Z,38.01
2017-10-10T08:06:34.927Z,37.73
2017-10-10T08:07:46.863Z,37.92
2017-10-10T08:08:59.440Z,37.73
2017-10-10T08:10:12.029Z,37.63
2017-10-10T08:11:24.606Z,37.06
2017-10-10T08:12:36.852Z,37.44
2017-10-10T08:13:49.098Z,36.96
2017-10-10T08:15:01.354Z,37.06
2017-10-10T08:16:13.938Z,37.34
2017-10-10T08:17:26.513Z,37.63
2017-10-10T08:18:39.081Z,37.63
2017-10-10T08:19:51.327Z,37.25
2017-10-10T08:21:03.899Z,37.06
2017-10-10T08:22:16.169Z,36.87
2017-10-10T08:23:28.088Z,36.87
2017-10-10T08:24:40.659Z,37.15
2017-10-10T08:25:53.230Z,37.15
2017-10-10T08:27:04.842Z,37.08
2017-10-10T08:28:16.772Z,36.98
2017-10-10T08:29:28.383Z,36.98
2017-10-10T08:30:40.637Z,37.46
2017-10-10T08:31:53.208Z,36.98
2017-10-10T08:33:05.782Z,37.46
2017-10-10T08:34:18.349Z,37.17
2017-10-10T08:35:30.919Z,37.46
2017-10-10T08:36:43.165Z,37.08
2017-10-10T08:37:55.761Z,36.88
2017-10-10T08:39:08.331Z,36.41
2017-10-10T08:40:20.577Z,36.79
2017-10-10T08:41:32.515Z,36.79
2017-10-10T08:42:44.769Z,36.88
2017-10-10T08:43:56.702Z,36.88
2017-10-10T08:45:09.302Z,36.81
2017-10-10T08:46:21.558Z,36.69
2017-10-10T08:47:33.495Z,37.19
2017-10-10T08:48:45.770Z,37.17
2017-10-10T08:49:57.718Z,37.55
2017-10-10T08:51:10.289Z,37.27
2017-10-10T08:52:22.537Z,37.95
2017-10-10T08:53:34.482Z,37.86
2017-10-10T08:54:47.051Z,37.66
2017-10-10T08:55:59.624Z,37.86
2017-10-10T08:57:12.192Z,38.15
2017-10-10T08:58:25.042Z,38.05
2017-10-10T08:59:37.284Z,39.19
2017-10-10T09:00:49.553Z,39.95
2017-10-10T09:02:01.801Z,39.86
2017-10-10T09:03:14.369Z,39.76
2017-10-10T09:04:26.941Z,39.1
2017-10-10T09:05:39.510Z,38.71
2017-10-10T09:06:52.082Z,38.15
2017-10-10T09:08:04.630Z,38.91
2017-10-10T09:09:17.198Z,38.81
2017-10-10T09:10:29.772Z,38.71
2017-10-10T09:11:42.341Z,38.81
2017-10-10T09:12:54.584Z,38.34
2017-10-10T09:14:06.832Z,38.15
2017-10-10T09:15:19.077Z,37.95
2017-10-10T09:16:30.996Z,37.95
2017-10-10T09:17:43.568Z,38.71
2017-10-10T09:18:55.496Z,39.1
2017-10-10T09:20:08.062Z,38.91
2017-10-10T09:21:20.329Z,38.34
2017-10-10T09:22:32.575Z,38.24
2017-10-10T09:23:45.163Z,38.83
2017-10-10T09:24:57.109Z,38.73
2017-10-10T09:26:09.389Z,38.17
2017-10-10T09:27:21.633Z,37.97
2017-10-10T09:28:33.578Z,37.97
2017-10-10T09:29:45.517Z,38.07
2017-10-10T09:30:57.770Z,37.68
2017-10-10T09:32:09.708Z,38.26
2017-10-10T09:33:22.279Z,37.78
2017-10-10T09:34:34.531Z,39.12
2017-10-10T09:35:47.103Z,39.5
2017-10-10T09:36:59.375Z,39.22
2017-10-10T09:38:11.620Z,39.31
2017-10-10T09:39:23.888Z,39.5
2017-10-10T09:40:35.835Z,39.22
2017-10-10T09:41:48.081Z,39.98
2017-10-10T09:43:00.652Z,39.98
2017-10-10T09:44:12.903Z,39.78
2017-10-10T09:45:25.485Z,39.88
2017-10-10T09:46:38.041Z,40.17
2017-10-10T09:47:50.609Z,40.17
2017-10-10T09:49:02.554Z,39.78
2017-10-10T09:50:15.125Z,39.78
2017-10-10T09:51:27.697Z,40.26
2017-10-10T09:52:39.942Z,40.17
2017-10-10T09:53:51.538Z,40.64
2017-10-10T09:55:04.108Z,40.36
2017-10-10T09:56:16.679Z,40.17
2017-10-10T09:57:29.248Z,40.07
2017-10-10T09:58:41.495Z,40.93
2017-10-10T09:59:53.739Z,40.83
2017-10-10T10:01:05.686Z,40.64
2017-10-10T10:02:17.932Z,40.36
2017-10-10T10:03:30.519Z,40.74
2017-10-10T10:04:42.774Z,40.55
2017-10-10T10:05:55.394Z,40.45
2017-10-10T10:07:07.640Z,40.83
2017-10-10T10:08:19.886Z,40.74
2017-10-10T10:09:32.154Z,40.55
2017-10-10T10:10:44.402Z,40.07
2017-10-10T10:11:56.647Z,40.64
2017-10-10T10:13:09.219Z,40.83
2017-10-10T10:14:21.488Z,40.64
2017-10-10T10:15:33.751Z,40.17
2017-10-10T10:16:46.304Z,39.88
2017-10-10T10:17:58.250Z,39.59
2017-10-10T10:19:10.820Z,39.31
2017-10-10T10:20:23.393Z,38.95
2017-10-10T10:21:35.338Z,38.76
2017-10-10T10:22:47.583Z,38.09
2017-10-10T10:24:00.161Z,37.99
2017-10-10T10:25:12.399Z,37.8
2017-10-10T10:26:24.670Z,38.28
2017-10-10T10:27:36.915Z,38.18
2017-10-10T10:28:49.163Z,38.47
2017-10-10T10:30:01.086Z,38.28
2017-10-10T10:31:13.654Z,38.18
2017-10-10T10:32:26.247Z,37.32
2017-10-10T10:33:38.819Z,37.13
2017-10-10T10:34:51.389Z,37.13
2017-10-10T10:36:03.966Z,37.13
2017-10-10T10:37:16.540Z,36.85
2017-10-10T10:38:29.125Z,36.96
2017-10-10T10:39:41.739Z,36.77
2017-10-10T10:40:53.674Z,36.96
2017-10-10T10:42:05.605Z,37.05
2017-10-10T10:43:17.534Z,36.68
2017-10-10T10:44:29.481Z,36.87
2017-10-10T10:45:41.743Z,36.87
2017-10-10T10:46:53.670Z,37.63
2017-10-10T10:48:06.242Z,38.3
2017-10-10T10:49:18.491Z,40.01
2017-10-10T10:50:30.108Z,39.73
2017-10-10T10:51:42.680Z,38.87
2017-10-10T10:52:55.249Z,40.4
2017-10-10T10:54:07.846Z,40.03
2017-10-10T10:55:20.415Z,39.47
2017-10-10T10:56:32.665Z,39.75
2017-10-10T10:57:44.907Z,40.13
2017-10-10T10:58:57.480Z,41.38
2017-10-10T11:00:10.048Z,42.24
2017-10-10T11:01:22.617Z,43.09
2017-10-10T11:02:34.563Z,44.43
2017-10-10T11:03:47.139Z,43.95
2017-10-10T11:04:59.381Z,43.38
2017-10-10T11:06:11.643Z,42.9
2017-10-10T11:07:23.574Z,42.81
2017-10-10T11:08:35.818Z,45.1
2017-10-10T11:09:48.412Z,44.34
2017-10-10T11:11:00.658Z,43.29
2017-10-10T11:12:12.922Z,43.48
2017-10-10T11:13:25.499Z,44.05
2017-10-10T11:14:37.424Z,45.01
2017-10-10T11:15:50.016Z,45.87
2017-10-10T11:17:02.579Z,45.58
2017-10-10T11:18:14.233Z,45.58
2017-10-10T11:19:26.430Z,46.25
2017-10-10T11:20:38.690Z,46.44
2017-10-10T11:21:51.244Z,48.44
2017-10-10T11:23:03.517Z,46.92
2017-10-10T11:24:15.785Z,46.44
2017-10-10T11:25:27.707Z,46.06
2017-10-10T11:26:40.295Z,46.72
2017-10-10T11:27:52.547Z,47.49
2017-10-10T11:29:05.127Z,48.54
2017-10-10T11:30:17.716Z,48.64
2017-10-10T11:31:29.660Z,50.07
2017-10-10T11:32:42.256Z,49.02
2017-10-10T11:33:54.500Z,48.07
2017-10-10T11:35:07.071Z,46.82
2017-10-10T11:36:19.317Z,47.11
2017-10-10T11:37:31.263Z,47.58
2017-10-10T11:38:43.201Z,47.68
2017-10-10T11:39:55.455Z,48.16
2017-10-10T11:41:07.717Z,48.64
2017-10-10T11:42:19.645Z,48.07
2017-10-10T11:43:31.915Z,48.35
2017-10-10T11:44:44.179Z,47.58
2017-10-10T11:45:56.129Z,48.16
2017-10-10T11:47:08.405Z,48.93
2017-10-10T11:48:20.973Z,49.09
2017-10-10T11:49:33.248Z,48.8
2017-10-10T11:50:45.196Z,48.8
2017-10-10T11:51:57.760Z,48.99
2017-10-10T11:53:10.332Z,50.24
2017-10-10T11:54:22.602Z,48.9
2017-10-10T11:55:34.849Z,47.75
2017-10-10T11:56:47.443Z,48.52
2017-10-10T11:58:00.014Z,48.93
2017-10-10T11:59:11.934Z,48.23
2017-10-10T12:00:24.505Z,47.47
2017-10-10T12:01:36.430Z,47.87
2017-10-10T12:02:48.996Z,48.71
2017-10-10T12:04:01.258Z,49.28
2017-10-10T12:05:13.516Z,49.09
2017-10-10T12:06:25.433Z,49.66
2017-10-10T12:07:37.048Z,49.11
2017-10-10T12:08:49.627Z,48.52
2017-10-10T12:10:01.550Z,48.61
2017-10-10T12:11:13.469Z,48.9
2017-10-10T12:12:25.737Z,51.19
2017-10-10T12:13:37.983Z,52.34
2017-10-10T12:14:49.927Z,54.72
2017-10-10T12:16:02.527Z,53.58
2017-10-10T12:17:14.448Z,52.81
2017-10-10T12:18:26.415Z,52.24
2017-10-10T12:19:38.699Z,53.2
2017-10-10T12:20:50.958Z,53.67
2017-10-10T12:22:02.908Z,54.82
2017-10-10T12:23:15.149Z,53.58
2017-10-10T12:24:27.095Z,53.86
2017-10-10T12:25:39.340Z,53.58
2017-10-10T12:26:51.928Z,53.49
2017-10-10T12:28:04.181Z,53.67
2017-10-10T12:29:16.451Z,52.62
2017-10-10T12:30:28.724Z,53.29
2017-10-10T12:31:40.342Z,53.96
2017-10-10T12:32:52.588Z,54.15
2017-10-10T12:34:04.532Z,55.4
2017-10-10T12:35:16.781Z,53.77
2017-10-10T12:36:28.726Z,52.43
2017-10-10T12:37:40.970Z,52.72
2017-10-10T12:38:53.543Z,51
2017-10-10T12:40:05.463Z,50.71
2017-10-10T12:41:17.407Z,51.38
2017-10-10T12:42:30.005Z,51.76
2017-10-10T12:43:42.575Z,51.57
2017-10-10T12:44:55.150Z,51.76
2017-10-10T12:46:07.415Z,50.52
2017-10-10T12:47:19.661Z,51.29
2017-10-10T12:48:31.906Z,51.57
2017-10-10T12:49:44.169Z,51.86
2017-10-10T12:50:56.141Z,50.52
2017-10-10T12:52:08.418Z,53.58
2017-10-10T12:53:20.996Z,52.81
2017-10-10T12:54:32.944Z,51.29
2017-10-10T12:55:45.204Z,52.81
2017-10-10T12:56:57.780Z,51.76
2017-10-10T12:58:09.723Z,51.38
2017-10-10T12:59:21.970Z,51.29
2017-10-10T13:00:33.914Z,51.38
2017-10-10T13:01:45.536Z,50.9
2017-10-10T13:02:57.780Z,50.71
2017-10-10T13:04:10.051Z,50.52
2017-10-10T13:05:22.296Z,49.85
2017-10-10T13:06:34.566Z,49.66
2017-10-10T13:07:46.838Z,49.57
2017-10-10T13:08:59.108Z,48.99
2017-10-10T13:10:11.378Z,49.57
2017-10-10T13:11:23.949Z,49.66
2017-10-10T13:12:36.218Z,48.61
2017-10-10T13:13:48.469Z,48.8
2017-10-10T13:15:01.036Z,48.33
2017-10-10T13:16:13.605Z,48.52
2017-10-10T13:17:25.852Z,48.04
2017-10-10T13:18:38.674Z,48.13
2017-10-10T13:19:51.261Z,47.75
2017-10-10T13:21:03.507Z,47.75
2017-10-10T13:22:16.063Z,48.13
2017-10-10T13:23:28.331Z,48.23
2017-10-10T13:24:40.925Z,48.23
2017-10-10T13:25:52.873Z,47.85
2017-10-10T13:27:04.799Z,48.23
2017-10-10T13:28:17.362Z,48.13
2017-10-10T13:29:29.333Z,48.13
2017-10-10T13:30:41.931Z,47.66
2017-10-10T13:31:53.867Z,47.37
2017-10-10T13:33:06.471Z,47.56
2017-10-10T13:34:18.392Z,46.89
2017-10-10T13:35:30.636Z,46.61
2017-10-10T13:36:42.257Z,46.8
2017-10-10T13:37:54.828Z,46.61
2017-10-10T13:39:07.399Z,46.32
2017-10-10T13:40:19.669Z,46.42
2017-10-10T13:41:31.922Z,46.32
2017-10-10T13:42:44.489Z,46.32
2017-10-10T13:43:56.732Z,46.32
2017-10-10T13:45:09.305Z,46.13
2017-10-10T13:46:21.872Z,46.22
2017-10-10T13:47:34.136Z,46.03
2017-10-10T13:48:46.705Z,46.32
2017-10-10T13:49:58.960Z,46.03
2017-10-10T13:51:11.580Z,45.75
2017-10-10T13:52:24.165Z,45.56
2017-10-10T13:53:36.072Z,46.22
2017-10-10T13:54:48.318Z,46.51
2017-10-10T13:56:00.580Z,46.03
2017-10-10T13:57:13.151Z,46.03
2017-10-10T13:58:25.431Z,46.03
2017-10-10T13:59:37.653Z,45.84
2017-10-10T14:00:49.895Z,45.94
2017-10-10T14:02:02.492Z,45.75
2017-10-10T14:03:15.080Z,46.03
2017-10-10T14:04:27.659Z,45.94
2017-10-10T14:05:39.582Z,45.94
2017-10-10T14:06:52.149Z,45.84
2017-10-10T14:08:04.393Z,45.94
2017-10-10T14:09:16.657Z,46.51
2017-10-10T14:10:29.240Z,45.94
2017-10-10T14:11:41.482Z,46.51
2017-10-10T14:12:53.408Z,46.32
2017-10-10T14:14:05.977Z,46.13
2017-10-10T14:15:18.544Z,46.42
2017-10-10T14:16:31.140Z,46.51
2017-10-10T14:17:43.383Z,46.13
2017-10-10T14:18:55.956Z,46.03
2017-10-10T14:20:08.226Z,47.08
2017-10-10T14:21:20.796Z,46.51
2017-10-10T14:22:33.368Z,46.51
2017-10-10T14:23:45.314Z,46.7
2017-10-10T14:24:57.909Z,46.3
2017-10-10T14:26:10.479Z,46.01
2017-10-10T14:27:22.746Z,45.92
2017-10-10T14:28:34.997Z,45.84
2017-10-10T14:29:47.567Z,45.72
2017-10-10T14:31:00.137Z,46.3
2017-10-10T14:32:12.066Z,46.11
2017-10-10T14:33:24.028Z,46.03
2017-10-10T14:34:35.650Z,45.63
2017-10-10T14:35:47.611Z,45.65
2017-10-10T14:37:00.190Z,45.43
2017-10-10T14:38:12.838Z,45.53
2017-10-10T14:39:25.081Z,45.72
2017-10-10T14:40:37.001Z,46.11
2017-10-10T14:41:49.272Z,45.72
2017-10-10T14:43:01.848Z,45.63
2017-10-10T14:44:14.092Z,46.51
2017-10-10T14:45:26.035Z,46.39
2017-10-10T14:46:38.605Z,45.94
2017-10-10T14:47:51.201Z,46.51
2017-10-10T14:49:03.772Z,46.97
2017-10-10T14:50:16.345Z,46.11
2017-10-10T14:51:28.281Z,45.92
2017-10-10T14:52:40.558Z,45.75
2017-10-10T14:53:53.129Z,45.75
2017-10-10T14:55:05.075Z,45.56
2017-10-10T14:56:17.321Z,45.65
2017-10-10T14:57:29.568Z,45.94
2017-10-10T14:58:42.137Z,45.56
2017-10-10T14:59:54.707Z,45.17
2017-10-10T15:01:07.280Z,45.27
2017-10-10T15:02:19.849Z,45.37
2017-10-10T15:03:32.118Z,45.65
2017-10-10T15:04:44.707Z,45.27
2017-10-10T15:05:56.961Z,45.17
2017-10-10T15:07:08.906Z,44.98
2017-10-10T15:08:20.832Z,45.75
2017-10-10T15:09:32.774Z,46.03
2017-10-10T15:10:45.352Z,46.7
2017-10-10T15:11:57.914Z,46.7
2017-10-10T15:13:10.158Z,46.03
2017-10-10T15:14:22.405Z,46.03
2017-10-10T15:15:34.004Z,45.94
2017-10-10T15:16:46.572Z,46.7
2017-10-10T15:17:59.393Z,46.51
2017-10-10T15:19:11.638Z,46.42
2017-10-10T15:20:23.883Z,46.22
2017-10-10T15:21:35.806Z,46.42
2017-10-10T15:22:47.775Z,46.42
2017-10-10T15:24:00.345Z,46.61
2017-10-10T15:25:12.594Z,46.61
2017-10-10T15:26:24.836Z,46.61
2017-10-10T15:27:37.407Z,47.47
2017-10-10T15:28:49.678Z,48.13
2017-10-10T15:30:02.252Z,48.04
2017-10-10T15:31:14.519Z,47.37
2017-10-10T15:32:27.090Z,47.75
2017-10-10T15:33:39.352Z,48.42